Home > Products > Valid Products > TAF

000
FTUS41 KAKQ 010500
TAFPHF
TAF
KPHF 010532Z 0106/0206 22010KT P6SM BKN250
     FM011400 23010KT P6SM SCT040 BKN250
     FM011700 23010G15KT P6SM SCT040 SCT120
     FM012200 22010KT P6SM SCT120=



000
FTUS41 KAKQ 010500
TAFECG
TAF
KECG 010532Z 0106/0206 20006KT P6SM BKN250
     FM010900 22006KT P6SM SCT006 BKN250
      TEMPO 0109/0112 BKN006
     FM011400 21010KT P6SM BKN250
     FM011700 21010G15KT P6SM BKN040
     FM012200 20010KT P6SM BKN250=



000
FTUS41 KAKQ 010500
TAFORF
TAF
KORF 010532Z 0106/0206 21010KT P6SM BKN250
     FM011400 23010KT P6SM SCT040 BKN250
     FM011800 23011G15KT P6SM BKN040
     FM012200 23011KT P6SM SCT120=



000
FTUS41 KAKQ 010500
TAFRIC
TAF
KRIC 010532Z 0106/0206 20005KT P6SM SCT045 BKN120
     FM011400 22010KT P6SM SCT040 SCT150
     FM012300 22005KT P6SM SCT120=



000
FTUS41 KAKQ 010500
TAFSBY
TAF
KSBY 010532Z 0106/0206 20006KT P6SM VCSH SCT025 BKN050
      TEMPO 0106/0107 6SM -SHRA BR BKN025
     FM010700 21005KT P6SM SCT050 BKN120
     FM011400 23010KT P6SM SCT040 BKN120
     FM020000 20005KT P6SM SCT120=



000
FTUS41 KAKQ 010400 AAB
TAFSBY
TAF AMD
KSBY 010437Z 0105/0124 20005KT P6SM VCSH SCT025 BKN040
      TEMPO 0105/0106 -SHRA BKN025
     FM010600 20006KT P6SM BKN100
     FM011400 23012KT P6SM BKN040 BKN150=



000
FTUS41 KAKQ 010300 AAA
TAFSBY
TAF AMD
KSBY 010332Z 0104/0124 19007KT P6SM VCSH BKN040
     FM010430 27005KT P6SM SCT025 BKN040
     FM010500 21005KT P6SM VCSH BKN040
     FM010600 20006KT P6SM BKN100
     FM011400 23012KT P6SM BKN040 BKN150=



000
FTUS41 KAKQ 010200 AAA
TAFORF
TAF AMD
KORF 010241Z 0103/0124 21010KT P6SM FEW040
     FM011400 25010G15KT P6SM SCT040 SCT200=



000
FTUS41 KAKQ 312300 RRA
TAFECG
TAF
KECG 312342Z 0100/0124 18005KT P6SM FEW050
     FM011400 21012KT P6SM SCT050=



000
FTUS41 KAKQ 312300 RRA
TAFRIC
TAF
KRIC 312342Z 0100/0124 20007KT P6SM SCT040 BKN250
     FM011400 24012KT P6SM FEW040 SCT150=



000
FTUS41 KAKQ 312300 RRA
TAFORF
TAF
KORF 312342Z 0100/0124 21012KT P6SM FEW040
     FM011400 25010G15KT P6SM SCT040 SCT200=



000
FTUS41 KAKQ 312300 RRA
TAFPHF
TAF
KPHF 312342Z 0100/0124 22008KT P6SM FEW040
     FM011400 25012KT P6SM SCT040 SCT150=



000
FTUS41 KAKQ 312300 RRA
TAFSBY
TAF
KSBY 312342Z 0100/0124 18007KT P6SM BKN250
     FM010400 19007KT P6SM VCTS BKN040CB
     FM010600 20006KT P6SM BKN100
     FM011400 23012KT P6SM BKN040 BKN150=



000
FTUS41 KAKQ 311700
TAFECG
TAF
KECG 311729Z 3118/0118 19012KT P6SM SCT040
     FM010000 20005KT P6SM BKN250
      TEMPO 0109/0112 BKN015
     FM011400 23011KT P6SM SCT250=



000
FTUS41 KAKQ 311700
TAFPHF
TAF
KPHF 311729Z 3118/0118 21011KT P6SM SCT040
     FM010100 21006KT P6SM SKC
     FM011500 24010G17KT P6SM SCT040 BKN250=



000
FTUS41 KAKQ 311700
TAFORF
TAF
KORF 311729Z 3118/0118 20012KT P6SM SCT040
     FM010200 21007KT P6SM SKC
     FM011500 24011G18KT P6SM SCT040 BKN250=



000
FTUS41 KAKQ 311700
TAFRIC
TAF
KRIC 311729Z 3118/0118 20013KT P6SM SCT035 BKN250
      TEMPO 3118/3121 20011G18KT
     FM312300 20006KT P6SM BKN250
     FM011200 24010KT P6SM SCT040 BKN150
      TEMPO 0116/0118 24011G19KT=



000
FTUS41 KAKQ 311700
TAFSBY
TAF
KSBY 311729Z 3118/0118 21011G18KT P6SM SCT040 SCT250
     FM312300 20006KT P6SM BKN250
      TEMPO 0109/0112 4SM BR
     FM011500 24011G18KT P6SM SCT040 BKN150=



000
FTUS41 KAKQ 311600 AAA
TAFECG
TAF AMD
KECG 311619Z 3116/0112 22010KT P6SM SCT025
      TEMPO 3116/3118 BKN025
     FM010000 18005KT P6SM BKN250=



000
FTUS41 KAKQ 311300 AAA
TAFSBY
TAF AMD
KSBY 311335Z 3114/0112 21010KT P6SM SCT040 BKN250
     FM311600 21011G18KT P6SM SCT040 SCT250
     FM312300 18005KT P6SM BKN250=



000
FTUS41 KAKQ 311100
TAFECG
TAF
KECG 311136Z 3112/0112 20005KT P6SM BKN250
     FM311600 18010KT P6SM SCT040
     FM010000 18005KT P6SM BKN250=



000
FTUS41 KAKQ 311100
TAFRIC
TAF
KRIC 311136Z 3112/0112 20006KT P6SM BKN250
     FM311500 20011KT P6SM SCT040
     FM312300 20006KT P6SM BKN250=



000
FTUS41 KAKQ 311100
TAFSBY
TAF
KSBY 311136Z 3112/0112 19006KT P6SM SCT004 BKN250
      TEMPO 3112/3113 5SM BR
     FM311300 21010KT P6SM SCT040 BKN250
     FM312300 18005KT P6SM BKN250=



000
FTUS41 KAKQ 311100
TAFORF
TAF
KORF 311136Z 3112/0112 21007KT P6SM BKN250
     FM311800 21012KT P6SM SCT040=



000
FTUS41 KAKQ 311100
TAFPHF
TAF
KPHF 311136Z 3112/0112 22007KT P6SM BKN250
     FM311500 22011KT P6SM SCT040=



000
FTUS41 KAKQ 311100 AAD
TAFECG
TAF AMD
KECG 311102Z 3111/0106 20003KT 3SM BR BKN250
      TEMPO 3111/3112 1/2SM FG
     FM311200 20007KT P6SM BKN250
     FM311800 18012KT P6SM SCT040
     FM312300 18005KT P6SM BKN250=



000
FTUS41 KAKQ 311000 AAA
TAFRIC
TAF AMD
KRIC 311032Z 3111/0106 20005KT P6SM BKN250
     FM311300 20011KT P6SM SCT040 BKN250
     FM312300 20006KT P6SM BKN250=



000
FTUS41 KAKQ 311000 AAC
TAFECG
TAF AMD
KECG 311031Z 3111/0106 20003KT 3SM BR BKN250
      TEMPO 3111/3112 2SM BR
     FM311200 20007KT P6SM BKN250
     FM311800 18012KT P6SM SCT040
     FM312300 18005KT P6SM BKN250=



000
FTUS41 KAKQ 311000 AAB
TAFECG
TAF AMD
KECG 311016Z 3110/0106 20003KT 5SM BR BKN250
     FM311200 20007KT P6SM BKN250
     FM311800 18012KT P6SM SCT040
     FM312300 18005KT P6SM BKN250=



000
FTUS41 KAKQ 310900 AAA
TAFSBY
TAF AMD
KSBY 310954Z 3110/0106 18006KT 5SM BR SCT006 BKN250
      TEMPO 3110/3112 BKN006
     FM311300 21008KT P6SM SCT025 BKN250
     FM311500 21010KT P6SM SCT040 BKN250
     FM312300 18005KT P6SM BKN250=



000
FTUS41 KAKQ 310900 AAA
TAFECG
TAF AMD
KECG 310913Z 3109/0106 20003KT 3SM BR BKN250
      TEMPO 3109/3111 1SM BR
     FM311200 20007KT P6SM BKN250
     FM311800 18012KT P6SM SCT040
     FM312300 18005KT P6SM BKN250=



000
FTUS41 KAKQ 310800 AAB
TAFORF
TAF AMD
KORF 310841Z 3109/0106 21006KT P6SM BKN250
     FM311300 21012KT P6SM SCT040 BKN250=



000
FTUS41 KAKQ 310600 AAA
TAFORF
TAF AMD
KORF 310644Z 3107/0106 21006KT P6SM BKN025 BKN250
     FM311300 21012KT P6SM SCT040 BKN250=



000
FTUS41 KAKQ 310500
TAFSBY
TAF
KSBY 310520Z 3106/0106 18003KT P6SM BKN040
     FM311000 18003KT 5SM BR BKN025
     FM311300 21008KT P6SM SCT025 BKN250
     FM311500 21010KT P6SM SCT040 BKN250
     FM312300 18005KT P6SM BKN250=



000
FTUS41 KAKQ 310500
TAFECG
TAF
KECG 310520Z 3106/0106 18005KT P6SM BKN250
     FM310900 20003KT 5SM BR BKN250
     FM311200 20007KT P6SM BKN250
     FM311800 18012KT P6SM SCT040
     FM312300 18005KT P6SM BKN250=



000
FTUS41 KAKQ 310500
TAFORF
TAF
KORF 310520Z 3106/0106 21006KT P6SM BKN250
     FM311300 21012KT P6SM SCT040 BKN250=



000
FTUS41 KAKQ 310500
TAFRIC
TAF
KRIC 310520Z 3106/0106 16005KT P6SM BKN250
     FM311100 20005KT 5SM BR SCT030 BKN250
     FM311300 20011KT P6SM SCT040 BKN250
     FM312300 20006KT P6SM BKN250=



000
FTUS41 KAKQ 310500
TAFPHF
TAF
KPHF 310520Z 3106/0106 20006KT P6SM BKN250
     FM311500 22010KT P6SM SCT040 BKN250
     FM312300 19006KT P6SM BKN250=



000
FTUS41 KAKQ 310400 AAA
TAFECG
TAF AMD
KECG 310436Z 3105/3124 18005KT P6SM BKN250
     FM310900 20003KT 5SM BR BKN250
     FM311200 20007KT P6SM BKN250
     FM311800 18012KT P6SM SCT040
     FM312300 18005KT P6SM BKN250=



000
FTUS41 KAKQ 310400 AAA
TAFPHF
TAF AMD
KPHF 310436Z 3105/3124 20006KT P6SM BKN250
     FM311500 22010KT P6SM SCT040 BKN250
     FM312300 19006KT P6SM BKN250=



000
FTUS41 KAKQ 310400 AAA
TAFRIC
TAF AMD
KRIC 310436Z 3105/3124 16005KT P6SM BKN250
     FM311100 20005KT 5SM BR BKN250
     FM311300 20011KT P6SM SCT040 BKN250
     FM312300 20006KT P6SM BKN250=



000
FTUS41 KAKQ 310400 AAA
TAFSBY
TAF AMD
KSBY 310436Z 3105/3124 18003KT P6SM BKN040
     FM311000 18003KT 5SM BR BKN025
     FM311300 21008KT P6SM SCT025 BKN250
     FM311500 21010KT P6SM SCT040 BKN250
     FM312300 18005KT P6SM BKN250=



000
FTUS41 KAKQ 310400 AAA
TAFORF
TAF AMD
KORF 310436Z 3105/3124 21006KT P6SM BKN250
     FM311300 21012KT P6SM SCT040 BKN250=



000
FTUS41 KAKQ 302300
TAFRIC
TAF
KRIC 302337Z 3100/3124 16005KT P6SM BKN250
     FM310800 20004KT 4SM BR BKN250
     FM311300 21011KT P6SM SCT040 BKN250=



000
FTUS41 KAKQ 302300
TAFSBY
TAF
KSBY 302337Z 3100/3124 16004KT P6SM BKN250
     FM310500 18003KT 4SM BR BKN030
     FM310700 20003KT 3SM BR BKN008
     FM311200 22006KT 4SM BR SCT010 BKN250
     FM311600 24010G15KT P6SM SCT040 BKN250=



000
FTUS41 KAKQ 302300
TAFORF
TAF
KORF 302337Z 3100/3124 16006KT P6SM BKN250
     FM310900 23006KT P6SM BKN030
     FM311400 22012KT P6SM SCT050 SCT250=



000
FTUS41 KAKQ 302300
TAFPHF
TAF
KPHF 302337Z 3100/3124 16005KT P6SM BKN250
     FM310900 23005KT 5SM BR BKN035
     FM311400 24010KT P6SM SCT050 SCT250=



000
FTUS41 KAKQ 302300
TAFECG
TAF
KECG 302337Z 3100/3124 18004KT P6SM BKN250
     FM310700 21004KT 5SM BR SCT040 SCT250
     FM311200 20010KT P6SM SCT250=



000
FTUS41 KAKQ 301700 CCA
TAFECG
TAF COR
KECG 301730Z 3018/3118 13010KT P6SM VCSH SCT025
      TEMPO 3018/3020 BKN025
     FM302000 15008KT P6SM SCT030
     FM310000 18004KT P6SM BKN250
      TEMPO 3107/3111 4SM BR
     FM311200 23008KT P6SM SCT250=



000
FTUS41 KAKQ 301700
TAFPHF
TAF
KPHF 301720Z 3018/3118 18008KT P6SM SCT030 BKN045
     FM310000 19005KT P6SM BKN250
     FM310900 23005KT 5SM BR SCT250
     FM311300 24010KT P6SM SCT250=



000
FTUS41 KAKQ 301700
TAFECG
TAF
KECG 301720Z 3018/3118 13010KT P6SM SCT025
     FM310000 18004KT P6SM BKN250
      TEMPO 3107/3111 4SM BR
     FM311200 23008KT P6SM SCT250=



000
FTUS41 KAKQ 301700
TAFSBY
TAF
KSBY 301720Z 3018/3118 16008KT P6SM BKN040
     FM310000 18004KT P6SM BKN250
     FM310500 18003KT 3SM BR BKN250
      TEMPO 3107/3111 1SM BR BKN003
     FM311200 22006KT 4SM BR SCT010 BKN250
     FM311500 24008KT 5SM HZ BKN250=



000
FTUS41 KAKQ 301700
TAFRIC
TAF
KRIC 301720Z 3018/3118 17008KT P6SM BKN025
     FM302100 18007KT P6SM SCT030
     FM310000 19005KT P6SM BKN250
     FM310800 20004KT 4SM BR BKN250
     FM311300 21011KT P6SM SCT030 BKN250=



000
FTUS41 KAKQ 301700
TAFORF
TAF
KORF 301720Z 3018/3118 16010KT P6SM BKN025
     FM302000 18008KT P6SM SCT030
     FM310000 19006KT P6SM BKN250
     FM310900 23006KT P6SM SCT250
     FM311300 24011KT P6SM SCT250=



000
FTUS41 KAKQ 301600 AAA
TAFRIC
TAF AMD
KRIC 301602Z 3016/3112 16009KT P6SM BKN025 OVC100
     FM301700 17010KT P6SM SCT035
     FM310000 19005KT P6SM BKN250=



000
FTUS41 KAKQ 301600 AAB
TAFPHF
TAF AMD
KPHF 301601Z 3016/3112 13005KT P6SM SCT025 BKN045
      TEMPO 3016/3017 BKN025
     FM301730 14008KT P6SM SCT040
     FM310000 17005KT P6SM BKN250=



000
FTUS41 KAKQ 301400 AAA
TAFORF
TAF AMD
KORF 301425Z 3014/3112 14006KT P6SM SCT025 OVC080
      TEMPO 3014/3016 BKN025
     FM301600 14008KT P6SM SCT040
     FM310000 18006KT P6SM BKN250=



000
FTUS41 KAKQ 301400 AAA
TAFPHF
TAF AMD
KPHF 301410Z 3014/3112 13005KT P6SM SCT025 BKN045
      TEMPO 3014/3016 BKN025
     FM301600 14008KT P6SM SCT035
     FM310000 17005KT P6SM BKN250=



000
FTUS41 KAKQ 301100
TAFRIC
TAF
KRIC 301128Z 3012/3112 14005KT P6SM BKN025 OVC060
     FM301500 17008KT P6SM SCT035
     FM310000 19005KT P6SM BKN250=



000
FTUS41 KAKQ 301100
TAFECG
TAF
KECG 301128Z 3012/3112 09005KT P6SM BKN050
     FM301400 12008KT P6SM SCT040
     FM310000 16005KT P6SM BKN250=



000
FTUS41 KAKQ 301100
TAFPHF
TAF
KPHF 301128Z 3012/3112 13005KT P6SM SCT025 BKN045
     FM301500 14008KT P6SM SCT035
     FM310000 17005KT P6SM BKN250=



000
FTUS41 KAKQ 301100
TAFSBY
TAF
KSBY 301128Z 3012/3112 15004KT P6SM BKN040
     FM301600 17008KT P6SM SCT050
     FM310000 18004KT P6SM BKN250=



000
FTUS41 KAKQ 301100
TAFORF
TAF
KORF 301128Z 3012/3112 12004KT P6SM SCT025 OVC080
     FM301500 14008KT P6SM SCT040
     FM310000 18006KT P6SM BKN250=



000
FTUS41 KAKQ 301000 AAA
TAFPHF
TAF AMD
KPHF 301014Z 3010/3106 VRB03KT P6SM BKN025 OVC050
     FM301200 13005KT P6SM SCT025 BKN050
     FM301500 14008KT P6SM SCT040
     FM310000 15005KT P6SM BKN250=



000
FTUS41 KAKQ 301000 AAA
TAFSBY
TAF AMD
KSBY 301002Z 3010/3106 00000KT P6SM BKN050
     FM301200 17008KT P6SM BKN040
     FM310000 18004KT P6SM BKN250=



000
FTUS41 KAKQ 300900 AAA
TAFRIC
TAF AMD
KRIC 300952Z 3010/3106 VRB02KT P6SM BKN025 OVC050
     FM301200 16005KT P6SM SCT025 BKN050
     FM301400 18008KT P6SM SCT040
     FM310000 16005KT P6SM BKN250=



000
FTUS41 KAKQ 300500
TAFRIC
TAF
KRIC 300533Z 3006/3106 10003KT P6SM SCT030 BKN050
     FM301100 13003KT P6SM BKN025
     FM301400 18008KT P6SM SCT040
     FM310000 16005KT P6SM BKN250=



000
FTUS41 KAKQ 300500
TAFPHF
TAF
KPHF 300533Z 3006/3106 VRB03KT P6SM SCT030 BKN050
     FM301200 13005KT P6SM SCT030 BKN050
     FM301500 14008KT P6SM SCT040
     FM310000 15005KT P6SM BKN250=



000
FTUS41 KAKQ 300500
TAFORF
TAF
KORF 300533Z 3006/3106 11004KT P6SM BKN050
     FM301400 12008KT P6SM SCT040
     FM310000 18006KT P6SM BKN250=



000
FTUS41 KAKQ 300500
TAFSBY
TAF
KSBY 300533Z 3006/3106 00000KT P6SM SCT050
     FM301000 00000KT 5SM BR BKN040
     FM301200 17008KT P6SM BKN040
     FM310000 18004KT P6SM BKN250=



000
FTUS41 KAKQ 300500
TAFECG
TAF
KECG 300533Z 3006/3106 08005KT P6SM SCT025 BKN050
     FM301400 12008KT P6SM SCT040
     FM310000 15005KT P6SM BKN250=



000
FTUS41 KAKQ 300300 AAA
TAFECG
TAF AMD
KECG 300332Z 3004/3024 09005KT P6SM BKN025 OVC035
     FM300800 07003KT P6SM SCT012 BKN025
     FM301400 13007KT P6SM SCT040=



000
FTUS41 KAKQ 292300
TAFECG
TAF
KECG 292325Z 3000/3024 07009KT P6SM BKN050
     FM300200 09005KT P6SM SCT050
     FM300800 07003KT P6SM SCT012 BKN025
     FM301400 13007KT P6SM SCT040=



000
FTUS41 KAKQ 292300
TAFRIC
TAF
KRIC 292325Z 3000/3024 11005KT P6SM SCT050 BKN150
     FM300500 13003KT P6SM BKN025
     FM301600 18008KT P6SM SCT040=



000
FTUS41 KAKQ 292300
TAFPHF
TAF
KPHF 292325Z 3000/3024 10005KT P6SM BKN050
     FM300700 13003KT P6SM BKN025 OVC050
     FM301500 13007KT P6SM SCT040=



000
FTUS41 KAKQ 292300
TAFSBY
TAF
KSBY 292325Z 3000/3024 10005KT P6SM SKC
     FM300700 VRB03KT 4SM BR BKN030
     FM301100 16005KT P6SM SCT040=



000
FTUS41 KAKQ 292300
TAFORF
TAF
KORF 292325Z 3000/3024 10007KT P6SM BKN050
     FM300600 10005KT P6SM BKN030
     FM301300 14007KT P6SM SCT040=



000
FTUS41 KAKQ 291700
TAFECG
TAF
KECG 291739Z 2918/3018 07009KT P6SM BKN050
     FM300200 09005KT P6SM SCT050
     FM300800 07003KT P6SM SCT012 BKN025=



000
FTUS41 KAKQ 291700
TAFPHF
TAF
KPHF 291739Z 2918/3018 07009KT P6SM FEW050
     FM300000 10005KT P6SM BKN050
     FM300700 13003KT P6SM SCT025 OVC050=



000
FTUS41 KAKQ 291700
TAFRIC
TAF
KRIC 291739Z 2918/3018 05007KT P6SM FEW050
     FM292200 10005KT P6SM SCT050 BKN150
     FM300700 13003KT P6SM BKN025=



000
FTUS41 KAKQ 291700
TAFSBY
TAF
KSBY 291739Z 2918/3018 VRB05KT P6SM SKC
     FM300000 12005KT P6SM SKC
     FM300700 VRB03KT 4SM BR SKC=



000
FTUS41 KAKQ 291700
TAFORF
TAF
KORF 291739Z 2918/3018 07011KT P6SM SKC
     FM292200 08007KT P6SM BKN050
     FM300400 10005KT P6SM BKN035=



000
FTUS41 KAKQ 291400 AAA
TAFPHF
TAF AMD
KPHF 291412Z 2914/3012 08007KT P6SM SCT050
     FM300200 10005KT P6SM BKN050
     FM300700 13004KT P6SM BKN025=



000
FTUS41 KAKQ 291100
TAFPHF
TAF
KPHF 291137Z 2912/3012 05005KT P6SM SCT050
      TEMPO 2912/2915 BKN050
     FM291700 08007KT P6SM SCT045 SCT080
     FM300200 10005KT P6SM BKN050
     FM300700 13004KT P6SM BKN025=



000
FTUS41 KAKQ 291100
TAFORF
TAF
KORF 291137Z 2912/3012 08006KT P6SM BKN050
     FM291700 06010KT P6SM SCT050
     FM292200 08008KT P6SM BKN050
     FM300300 10006KT P6SM BKN030=



000
FTUS41 KAKQ 291100
TAFRIC
TAF
KRIC 291137Z 2912/3012 03005KT P6SM BKN050
     FM291600 07007KT P6SM SCT050
     FM292200 10006KT P6SM BKN050
     FM300700 13003KT P6SM BKN025=



000
FTUS41 KAKQ 291100
TAFECG
TAF
KECG 291137Z 2912/3012 04007KT P6SM BKN050
     FM291900 07009KT P6SM SCT040
     FM300200 09004KT P6SM BKN035
     FM300800 07003KT P6SM BKN025=



000
FTUS41 KAKQ 291100
TAFSBY
TAF
KSBY 291137Z 2912/3012 VRB03KT P6SM SKC
     FM291700 03005KT P6SM SCT040
     FM300000 12003KT P6SM SKC
     FM300700 VRB03KT 4SM BR SKC=



    US Dept of Commerce
    National Oceanic and Atmospheric Administration
    National Weather Service
    1325 East West Highway
    Silver Spring, MD 20910
    Page Author: NWS Internet Services Team
Disclaimer
Information Quality
Credits
Glossary
Privacy Policy
Freedom of Information Act (FOIA)
About Us
Career Opportunities